Rochester, NY

8:30 AM EDT on October 24, 2014 (GMT -0400)
Buffalo Niagara International | Change Station
CLOSE
Current Station
Airport
Location: Buffalo,
Elevation: 702 ft
Nearby Weather Stations

Elev 702 ft 42.94 °N, 78.74 °W | Updated 36 minutes ago

Mostly Cloudy
Mostly Cloudy
40 °F
Feels Like 38 °F
N
4
Wind Variable Wind from SSW

Today
High -- | Low -- °F
--% Chance of Precip.
Yesterday
High -- | Low -- °F
Precip. -- in
7:35 AM 6:13 PM
New Moon, 0% visible
Pressure 30.06 in
Visibility 8.0 miles
Clouds Few 4500 ft
Few 25000 ft
Windchill 38 °F
Dew Point 37 °F
Humidity 89%
Rainfall 0.00 in
Snow Depth Not available.
UV 0 out of 12
Pollen 1.10 out of 12
Air Quality Not available.
Flu Activity Sporadic
METAR KBUF 241154Z 20003KT 8SM FEW045 FEW250 04/03 A3004 RMK AO2 SLP177 T00440028 10078 20033 51005

More Conditions Fewer Conditions

Pressure 30.06 in
Visibility 8.0 miles
Clouds Few 4500 ft
Few 25000 ft
Windchill 38 °F
Dew Point 37 °F
Humidity 89%
Rainfall 0.00 in
Snow Depth Not available.
UV 0 out of 12
Pollen 1.10 out of 12
Air Quality Not available.
Flu Activity Sporadic
METAR KBUF 241154Z 20003KT 8SM FEW045 FEW250 04/03 A3004 RMK AO2 SLP177 T00440028 10078 20033 51005

More Conditions Fewer Conditions

10-Day Weather Forecast

Almanac

Astronomy

Oct. 24, 2014 Rise Set
Actual Time 7:35 AM EDT 6:13 PM EDT
Civil Twilight 7:05 AM EDT 6:42 PM EDT
Nautical Twilight 6:32 AM EDT 7:15 PM EDT
Astronomical Twilight 5:59 AM EDT 7:48 PM EDT
Moon 8:12 AM EDT 6:50 PM EDT
Length of Visible Light 11h 36m
Length of Day
10h 38m
Tomorrow will be 2m 44s shorter.
New Moon, 0% of the Moon is Illuminated
Today
New Moon
Oct 30
First Quarter
Nov 6
Full
Nov 14
Last Quarter
Nov 22
New

Today's Extremes

State Highs State Lows

Community

WunderPhotos

Upload Photos

1,764,544 photos uploaded!

Nearby

Air Quality

  Air Quality AQ Index Pollutant
Friday Good
PM2.5

Snow Depth

Station Depth Elevation
No new snow has been reported.

Earthquake Activity

City Distance Mag. Time & Date
No recent earthquake activity has been reported nearby.
Minimum magnitude displayed is 2.5.

Coastal Water Temperatures

Place Temperature
Buffalo, NY 57.0 °F
Alexandria Bay, NY 55.9 °F

Nearby Weather Stations